createdAt,value
2019-04-05T00:00:19.813Z,78.75
2019-04-05T00:03:16.508Z,45.40
2019-04-05T00:06:12.602Z,83.72
2019-04-05T00:09:10.016Z,60.95
2019-04-05T00:12:06.201Z,63.63
2019-04-05T00:15:14.704Z,56.55
2019-04-05T00:17:58.898Z,66.28
2019-04-05T00:20:55.250Z,69.05
2019-04-05T00:23:53.346Z,62.85
2019-04-05T00:26:48.429Z,69.20
2019-04-05T00:29:45.322Z,53.42
2019-04-05T00:32:41.899Z,50.05
2019-04-05T00:35:37.619Z,53.68
2019-04-05T00:38:34.572Z,58.30
2019-04-05T00:41:32.897Z,75.12
2019-04-05T00:44:28.171Z,64.37
2019-04-05T00:47:25.360Z,62.50
2019-04-05T00:50:22.922Z,64.12
2019-04-05T00:53:18.846Z,57.93
2019-04-05T00:56:14.958Z,62.08
2019-04-05T00:59:10.793Z,70.57
2019-04-05T01:02:06.615Z,62.30
2019-04-05T01:05:02.425Z,67.78
2019-04-05T01:07:58.964Z,71.70
2019-04-05T01:10:54.800Z,57.17
2019-04-05T01:13:51.211Z,46.73
2019-04-05T01:16:46.780Z,50.05
2019-04-05T01:19:43.114Z,49.55
2019-04-05T01:22:38.873Z,47.35
2019-04-05T01:25:35.372Z,39.73
2019-04-05T01:28:31.564Z,55.10
2019-04-05T01:31:27.111Z,42.67
2019-04-05T01:34:22.666Z,53.80
2019-04-05T01:37:18.434Z,57.45
2019-04-05T01:40:14.926Z,70.55
2019-04-05T01:43:11.374Z,61.90
2019-04-05T01:46:07.885Z,55.17
2019-04-05T01:49:04.126Z,65.45
2019-04-05T01:52:00.484Z,58.48
2019-04-05T01:54:57.760Z,64.27
2019-04-05T01:57:53.644Z,55.00
2019-04-05T02:00:51.216Z,55.80
2019-04-05T02:03:46.880Z,52.17
2019-04-05T02:06:43.295Z,50.85
2019-04-05T02:09:41.418Z,58.52
2019-04-05T02:12:37.484Z,53.58
2019-04-05T02:15:34.756Z,62.23
2019-04-05T02:18:30.789Z,50.75
2019-04-05T02:21:30.288Z,55.83
2019-04-05T02:24:26.220Z,52.95
2019-04-05T02:27:22.564Z,59.23
2019-04-05T02:30:21.112Z,59.13
2019-04-05T02:33:17.901Z,54.35
2019-04-05T02:36:14.004Z,67.35
2019-04-05T02:39:11.206Z,54.67
2019-04-05T02:42:08.028Z,57.53
2019-04-05T02:45:04.331Z,54.42
2019-04-05T02:48:02.818Z,61.63
2019-04-05T02:51:02.311Z,58.13
2019-04-05T02:53:58.764Z,55.45
2019-04-05T02:56:55.822Z,73.90
2019-04-05T02:59:54.843Z,64.00
2019-04-05T03:02:50.710Z,71.05
2019-04-05T03:05:47.097Z,77.20
2019-04-05T03:08:46.507Z,68.30
2019-04-05T03:11:46.461Z,67.20
2019-04-05T03:14:44.768Z,73.50
2019-04-05T03:17:42.039Z,79.32
2019-04-05T03:20:38.735Z,56.75
2019-04-05T03:23:35.546Z,65.45
2019-04-05T03:26:32.714Z,54.85
2019-04-05T03:29:28.194Z,58.83
2019-04-05T03:32:24.065Z,53.42
2019-04-05T03:35:20.749Z,46.83
2019-04-05T03:38:16.927Z,56.00
2019-04-05T03:41:13.241Z,49.23
2019-04-05T03:44:09.097Z,49.95
2019-04-05T03:47:05.649Z,49.58
2019-04-05T03:50:01.303Z,47.53
2019-04-05T03:52:56.794Z,38.15
2019-04-05T03:55:52.539Z,45.08
2019-04-05T03:58:48.371Z,45.20
2019-04-05T04:01:44.112Z,44.83
2019-04-05T04:04:44.302Z,51.37
2019-04-05T04:07:40.531Z,53.68
2019-04-05T04:10:38.281Z,42.70
2019-04-05T04:13:35.015Z,51.92
2019-04-05T04:16:31.789Z,49.03
2019-04-05T04:19:28.359Z,55.80
2019-04-05T04:22:32.784Z,64.10
2019-04-05T04:25:28.790Z,59.15
2019-04-05T04:28:25.163Z,67.58
2019-04-05T04:31:20.730Z,58.23
2019-04-05T04:34:16.907Z,53.68
2019-04-05T04:37:13.239Z,47.15
2019-04-05T04:40:09.663Z,53.08
2019-04-05T04:43:05.798Z,55.40
2019-04-05T04:46:01.510Z,49.48
2019-04-05T04:48:57.710Z,73.60
2019-04-05T04:51:53.757Z,70.00
2019-04-05T04:54:50.449Z,52.65
2019-04-05T04:57:49.790Z,43.90
2019-04-05T05:00:48.888Z,46.05
2019-04-05T05:03:44.645Z,56.95
2019-04-05T05:06:41.217Z,55.92
2019-04-05T05:09:37.444Z,51.40
2019-04-05T05:13:04.788Z,50.98
2019-04-05T05:16:02.466Z,51.53
2019-04-05T05:18:58.733Z,52.62
2019-04-05T05:22:18.987Z,44.65
2019-04-05T05:25:18.757Z,44.88
2019-04-05T05:28:24.869Z,47.88
2019-04-05T05:31:28.291Z,64.97
2019-04-05T05:34:26.533Z,57.25
2019-04-05T05:37:29.067Z,52.70
2019-04-05T05:41:13.593Z,54.85
2019-04-05T05:45:20.274Z,37.53
2019-04-05T05:48:19.065Z,42.00
2019-04-05T05:51:19.633Z,37.33
2019-04-05T05:54:23.023Z,42.38
2019-04-05T05:57:42.520Z,40.52
2019-04-05T06:00:39.020Z,37.15
2019-04-05T06:03:45.623Z,43.02
2019-04-05T06:06:46.516Z,32.53
2019-04-05T06:09:47.427Z,42.17
2019-04-05T06:12:40.857Z,36.48
2019-04-05T06:15:46.786Z,40.23
2019-04-05T06:18:42.479Z,49.67
2019-04-05T06:21:42.671Z,42.67
2019-04-05T06:24:41.339Z,37.48
2019-04-05T06:27:39.251Z,39.27
2019-04-05T06:30:36.649Z,34.92
2019-04-05T06:33:35.709Z,39.25
2019-04-05T06:36:35.511Z,37.40
2019-04-05T06:39:32.955Z,54.03
2019-04-05T06:42:28.780Z,38.65
2019-04-05T06:45:26.118Z,33.10
2019-04-05T06:48:22.848Z,38.53
2019-04-05T06:51:19.876Z,39.08
2019-04-05T06:54:27.165Z,34.33
2019-04-05T06:57:28.902Z,35.35
2019-04-05T07:00:24.542Z,33.00
2019-04-05T07:03:31.054Z,37.53
2019-04-05T07:06:26.802Z,33.20
2019-04-05T07:09:23.471Z,39.00
2019-04-05T07:12:20.750Z,35.13
2019-04-05T07:15:16.043Z,29.15
2019-04-05T07:18:14.545Z,32.40
2019-04-05T07:21:09.789Z,55.70
2019-04-05T07:24:06.191Z,36.25
2019-04-05T07:27:10.847Z,28.10
2019-04-05T07:30:15.451Z,39.53
2019-04-05T07:33:26.438Z,35.78
2019-04-05T07:36:34.837Z,37.78
2019-04-05T07:39:54.928Z,30.80
2019-04-05T07:43:25.110Z,31.57
2019-04-05T07:46:30.167Z,36.42
2019-04-05T07:49:29.505Z,27.42
2019-04-05T07:52:39.155Z,33.33
2019-04-05T07:55:36.846Z,31.20
2019-04-05T07:58:33.464Z,31.57
2019-04-05T08:01:29.995Z,25.72
2019-04-05T08:04:29.922Z,23.90
2019-04-05T08:07:28.723Z,31.82
2019-04-05T08:10:30.468Z,39.20
2019-04-05T08:13:26.846Z,26.07
2019-04-05T08:16:22.632Z,30.23
2019-04-05T08:19:22.457Z,32.63
2019-04-05T08:22:18.578Z,30.12
2019-04-05T08:25:15.818Z,26.10
2019-04-05T08:28:11.380Z,28.25
2019-04-05T08:31:19.645Z,32.05
2019-04-05T08:34:15.516Z,31.52
2019-04-05T08:37:11.835Z,30.90
2019-04-05T08:40:10.442Z,26.15
2019-04-05T08:43:15.197Z,23.35
2019-04-05T08:46:13.450Z,33.80
2019-04-05T08:49:13.560Z,24.95
2019-04-05T08:52:15.911Z,27.13
2019-04-05T08:55:21.252Z,23.57
2019-04-05T08:58:18.901Z,27.20
2019-04-05T09:01:14.921Z,27.65
2019-04-05T09:05:05.111Z,26.50
2019-04-05T09:08:00.617Z,23.07
2019-04-05T09:10:57.209Z,28.95
2019-04-05T09:13:53.049Z,22.82
2019-04-05T09:16:48.603Z,29.27
2019-04-05T09:19:43.947Z,22.48
2019-04-05T09:22:39.678Z,29.70
2019-04-05T09:25:35.943Z,25.15
2019-04-05T09:28:35.178Z,24.63
2019-04-05T09:31:31.360Z,24.23
2019-04-05T09:34:27.212Z,24.67
2019-04-05T09:37:23.932Z,36.50
2019-04-05T09:40:23.105Z,33.15
2019-04-05T09:43:21.027Z,33.18
2019-04-05T09:46:18.533Z,23.02
2019-04-05T09:49:16.241Z,22.07
2019-04-05T09:52:13.442Z,24.00
2019-04-05T09:55:09.679Z,28.47
2019-04-05T09:58:09.709Z,30.37
2019-04-05T10:01:09.684Z,28.07
2019-04-05T10:04:15.225Z,34.53
2019-04-05T10:07:12.583Z,31.07
2019-04-05T10:10:09.942Z,29.95
2019-04-05T10:13:09.406Z,34.65
2019-04-05T10:16:03.020Z,27.60
2019-04-05T10:18:59.152Z,28.75
2019-04-05T10:21:58.936Z,27.42
2019-04-05T10:24:56.590Z,28.60
2019-04-05T10:27:56.827Z,27.52
2019-04-05T10:30:55.743Z,28.87
2019-04-05T10:33:55.405Z,30.08
2019-04-05T10:36:52.931Z,23.50
2019-04-05T10:39:50.234Z,27.87
2019-04-05T10:42:46.663Z,20.77
2019-04-05T10:45:42.898Z,32.23
2019-04-05T10:48:39.553Z,27.65
2019-04-05T10:51:41.403Z,33.92
2019-04-05T10:54:37.973Z,36.88
2019-04-05T10:57:34.886Z,33.78
2019-04-05T11:00:32.251Z,28.62
2019-04-05T11:03:30.769Z,32.93
2019-04-05T11:06:26.500Z,29.27
2019-04-05T11:09:26.692Z,24.35
2019-04-05T11:12:22.743Z,31.73
2019-04-05T11:15:23.256Z,36.08
2019-04-05T11:19:11.973Z,31.75
2019-04-05T11:22:30.493Z,30.60
2019-04-05T11:25:40.220Z,30.30
2019-04-05T11:28:47.708Z,36.05
2019-04-05T11:31:57.470Z,37.28
2019-04-05T11:35:01.482Z,31.65
2019-04-05T11:38:24.080Z,38.40
2019-04-05T11:41:23.981Z,26.17
2019-04-05T11:44:36.228Z,32.23
2019-04-05T11:47:36.927Z,31.45
2019-04-05T11:50:35.078Z,35.60
2019-04-05T11:53:32.979Z,36.93
2019-04-05T11:57:17.996Z,35.52
2019-04-05T12:00:36.362Z,39.20
2019-04-05T12:04:04.659Z,37.30
2019-04-05T12:11:22.380Z,48.58
2019-04-05T12:14:30.152Z,48.33
2019-04-05T12:17:23.438Z,43.02
2019-04-05T12:20:23.531Z,36.38
2019-04-05T12:23:32.541Z,45.03
2019-04-05T12:26:53.259Z,46.92
2019-04-05T12:29:55.620Z,56.23
2019-04-05T12:32:54.783Z,43.23
2019-04-05T12:35:57.293Z,63.20
2019-04-05T12:44:34.618Z,51.33
2019-04-05T12:47:45.158Z,46.25
2019-04-05T12:50:40.384Z,54.50
2019-04-05T12:53:36.213Z,49.48
2019-04-05T12:56:33.662Z,60.80
2019-04-05T12:59:29.256Z,58.17
2019-04-05T13:02:35.531Z,49.67
2019-04-05T13:05:34.131Z,53.15
2019-04-05T13:08:59.201Z,60.35
2019-04-05T13:12:06.157Z,49.67
2019-04-05T13:15:16.569Z,72.65
2019-04-05T13:18:14.466Z,50.92
2019-04-05T13:21:15.267Z,45.85
2019-04-05T13:24:10.634Z,50.35
2019-04-05T13:27:14.256Z,71.82
2019-04-05T13:30:18.437Z,60.45
2019-04-05T13:33:15.285Z,64.60
2019-04-05T13:36:17.500Z,56.60
2019-04-05T13:39:17.711Z,54.77
2019-04-05T13:42:19.447Z,64.97
2019-04-05T13:45:16.370Z,53.68
2019-04-05T13:48:27.237Z,72.40
2019-04-05T13:51:27.999Z,62.95
2019-04-05T13:54:18.635Z,89.95
2019-04-05T13:57:14.062Z,68.45
2019-04-05T14:00:10.085Z,97.88
2019-04-05T14:03:05.810Z,84.20
2019-04-05T14:06:06.622Z,89.42
2019-04-05T14:09:03.671Z,82.37
2019-04-05T14:12:00.406Z,61.70
2019-04-05T14:14:56.302Z,64.32
2019-04-05T14:17:52.687Z,69.77
2019-04-05T14:20:49.644Z,62.27
2019-04-05T14:23:44.322Z,54.23
2019-04-05T14:26:43.761Z,79.90
2019-04-05T14:29:39.263Z,66.62
2019-04-05T14:32:35.137Z,75.10
2019-04-05T14:35:31.897Z,65.12
2019-04-05T14:38:31.223Z,69.00
2019-04-05T14:41:25.936Z,62.00
2019-04-05T14:44:22.492Z,72.58
2019-04-05T14:47:19.875Z,52.13
2019-04-05T14:50:16.013Z,66.67
2019-04-05T14:53:11.158Z,75.85
2019-04-05T14:56:07.196Z,68.57
2019-04-05T14:59:04.798Z,66.15
2019-04-05T15:02:00.622Z,76.05
2019-04-05T15:04:57.602Z,82.85
2019-04-05T15:07:55.080Z,66.65
2019-04-05T15:10:51.462Z,68.62
2019-04-05T15:13:49.035Z,71.17
2019-04-05T15:16:44.680Z,65.52
2019-04-05T15:19:46.686Z,70.65
2019-04-05T15:22:42.333Z,75.83
2019-04-05T15:25:37.840Z,68.80
2019-04-05T15:28:38.937Z,77.80
2019-04-05T15:31:35.639Z,66.72
2019-04-05T15:34:31.859Z,67.03
2019-04-05T15:37:31.615Z,59.85
2019-04-05T15:40:24.445Z,59.08
2019-04-05T15:43:21.272Z,54.23
2019-04-05T15:46:16.950Z,56.37
2019-04-05T15:49:12.861Z,62.95
2019-04-05T15:52:18.034Z,62.45
2019-04-05T15:55:05.274Z,66.92
2019-04-05T15:58:03.470Z,61.02
2019-04-05T16:00:57.428Z,59.53
2019-04-05T16:03:52.865Z,59.25
2019-04-05T16:06:48.288Z,64.80
2019-04-05T16:09:43.765Z,63.08
2019-04-05T16:12:39.159Z,73.10
2019-04-05T16:15:34.508Z,59.95
2019-04-05T16:18:31.116Z,69.82
2019-04-05T16:21:27.085Z,67.25
2019-04-05T16:24:23.194Z,62.70
2019-04-05T16:27:18.708Z,59.08
2019-04-05T16:30:16.352Z,60.48
2019-04-05T16:33:21.392Z,53.15
2019-04-05T16:36:18.429Z,62.75
2019-04-05T16:39:18.668Z,68.33
2019-04-05T16:42:16.159Z,65.95
2019-04-05T16:45:12.205Z,63.10
2019-04-05T16:48:08.634Z,60.03
2019-04-05T16:51:04.847Z,47.10
2019-04-05T16:54:02.555Z,75.78
2019-04-05T16:56:57.860Z,62.38
2019-04-05T16:59:53.519Z,64.30
2019-04-05T17:02:49.145Z,76.25
2019-04-05T17:05:45.466Z,69.60
2019-04-05T17:08:41.118Z,61.60
2019-04-05T17:11:38.680Z,60.88
2019-04-05T17:14:36.022Z,63.65
2019-04-05T17:17:32.892Z,62.43
2019-04-05T17:20:28.717Z,59.25
2019-04-05T17:23:26.759Z,58.83
2019-04-05T17:26:22.697Z,58.20
2019-04-05T17:29:18.036Z,66.50
2019-04-05T17:32:13.503Z,59.23
2019-04-05T17:35:09.131Z,72.20
2019-04-05T17:38:05.245Z,59.00
2019-04-05T17:41:00.990Z,61.77
2019-04-05T17:43:56.787Z,64.12
2019-04-05T17:46:54.462Z,59.23
2019-04-05T17:49:52.075Z,64.00
2019-04-05T17:52:47.809Z,57.35
2019-04-05T17:55:43.623Z,58.02
2019-04-05T17:58:39.789Z,60.63
2019-04-05T18:01:34.925Z,68.35
2019-04-05T18:04:30.204Z,61.35
2019-04-05T18:07:25.620Z,62.03
2019-04-05T18:10:20.826Z,56.95
2019-04-05T18:13:16.109Z,59.77
2019-04-05T18:16:11.907Z,63.87
2019-04-05T18:19:07.650Z,61.50
2019-04-05T18:22:04.628Z,58.98
2019-04-05T18:24:59.911Z,55.28
2019-04-05T18:27:55.152Z,65.42
2019-04-05T18:30:50.970Z,57.62
2019-04-05T18:33:46.474Z,69.62
2019-04-05T18:36:41.857Z,55.17
2019-04-05T18:39:36.965Z,63.13
2019-04-05T18:42:32.321Z,74.10
2019-04-05T18:45:27.608Z,81.95
2019-04-05T18:48:23.140Z,73.33
2019-04-05T18:51:18.365Z,68.80
2019-04-05T18:54:13.390Z,74.92
2019-04-05T18:57:08.793Z,70.42
2019-04-05T19:00:04.166Z,61.68
2019-04-05T19:02:59.388Z,76.37
2019-04-05T19:05:56.880Z,73.15
2019-04-05T19:08:52.521Z,75.78
2019-04-05T19:11:47.968Z,59.75
2019-04-05T19:14:43.596Z,52.15
2019-04-05T19:17:39.199Z,57.10
2019-04-05T19:20:36.910Z,56.58
2019-04-05T19:23:31.048Z,46.35
2019-04-05T19:26:26.132Z,51.85
2019-04-05T19:29:21.609Z,45.73
2019-04-05T19:49:52.535Z,48.25
2019-04-05T19:52:47.880Z,45.35
2019-04-05T19:55:43.750Z,50.78
2019-04-05T19:58:39.031Z,45.43
2019-04-05T20:01:34.652Z,40.70
2019-04-05T20:04:29.924Z,49.05
2019-04-05T20:07:26.095Z,45.88
2019-04-05T20:10:22.277Z,42.93
2019-04-05T20:13:19.538Z,45.67
2019-04-05T20:16:15.187Z,48.45
2019-04-05T20:19:10.664Z,38.48
2019-04-05T20:22:06.124Z,49.30
2019-04-05T20:25:01.476Z,47.67
2019-04-05T20:27:56.687Z,40.00
2019-04-05T20:30:51.855Z,43.85
2019-04-05T20:33:47.151Z,39.18
2019-04-05T20:36:42.476Z,46.68
2019-04-05T20:39:38.060Z,44.25
2019-04-05T20:42:33.140Z,51.00
2019-04-05T20:45:28.969Z,68.35
2019-04-05T20:48:24.976Z,58.70
2019-04-05T20:51:20.441Z,47.35
2019-04-05T20:54:24.251Z,42.43
2019-04-05T20:57:11.630Z,45.03
2019-04-05T21:00:07.835Z,43.38
2019-04-05T21:03:03.811Z,46.60
2019-04-05T21:05:58.973Z,38.70
2019-04-05T21:08:54.394Z,42.50
2019-04-05T21:11:49.913Z,43.38
2019-04-05T21:14:45.222Z,47.13
2019-04-05T21:17:40.643Z,42.80
2019-04-05T21:20:36.288Z,40.95
2019-04-05T21:23:31.937Z,74.53
2019-04-05T21:26:27.529Z,53.48
2019-04-05T21:29:26.397Z,47.53
2019-04-05T21:32:22.811Z,52.85
2019-04-05T21:35:18.916Z,47.43
2019-04-05T21:38:15.197Z,54.70
2019-04-05T21:41:13.120Z,48.92
2019-04-05T21:44:06.385Z,64.00
2019-04-05T21:47:01.711Z,56.10
2019-04-05T21:49:57.065Z,57.70
2019-04-05T21:52:52.305Z,47.98
2019-04-05T21:55:47.305Z,52.20
2019-04-05T21:58:43.167Z,60.85
2019-04-05T22:01:38.686Z,51.28
2019-04-05T22:04:34.205Z,57.75
2019-04-05T22:07:29.890Z,59.27
2019-04-05T22:10:25.282Z,50.30
2019-04-05T22:13:21.691Z,61.63
2019-04-05T22:16:21.982Z,51.18
2019-04-05T22:19:18.436Z,50.12
2019-04-05T22:22:14.306Z,55.48
2019-04-05T22:25:11.927Z,59.50
2019-04-05T22:28:07.420Z,65.55
2019-04-05T22:31:02.659Z,58.95
2019-04-05T22:33:58.212Z,49.25
2019-04-05T22:36:53.705Z,51.55
2019-04-05T22:39:52.039Z,60.38
2019-04-05T22:42:48.281Z,53.02
2019-04-05T22:45:43.770Z,51.73
2019-04-05T22:48:39.046Z,56.10
2019-04-05T22:51:34.642Z,70.00
2019-04-05T22:54:30.102Z,61.98
2019-04-05T22:57:26.107Z,59.77
2019-04-05T23:00:21.861Z,51.25
2019-04-05T23:03:19.618Z,63.90
2019-04-05T23:06:15.197Z,51.33
2019-04-05T23:09:12.602Z,50.00
2019-04-05T23:12:08.583Z,49.55
2019-04-05T23:15:04.664Z,57.43
2019-04-05T23:18:00.048Z,51.65
2019-04-05T23:20:56.423Z,52.65
2019-04-05T23:23:51.561Z,49.35
2019-04-05T23:26:48.948Z,49.00
2019-04-05T23:29:44.222Z,49.08
2019-04-05T23:32:39.461Z,47.33
2019-04-05T23:35:36.365Z,51.83
2019-04-05T23:38:32.062Z,46.15
2019-04-05T23:41:27.436Z,51.63
2019-04-05T23:44:22.883Z,49.75
2019-04-05T23:47:18.606Z,53.95
2019-04-05T23:50:14.125Z,48.85
2019-04-05T23:53:11.918Z,58.87
2019-04-05T23:56:07.383Z,65.28
2019-04-05T23:59:02.533Z,54.20
